Big Piney, WY weather

Big Piney-Marbleton Airport (AMOS), Big Piney, WY: 5/22/2017 23:53
Visibility10 statute milessun with broken clouds
View 7-Day Forecast
Area Summary
Sky/CloudsBroken at 10000ft
Weather [last 24 hours]None
Pressure30.34 in.Hg (1028 hPa)
3-hour Pressure Tendency0.03838 in.Hg (1.3 hPa) Increasing, then decreasing
Dew Point35.1 °F (1.7 °C)
Relative Humidity 76 %
Reading TimePrecipitation
24-hr ending 5/22@05:530.01 in. (0.254 mm)
Temperature42.1 °F (5.6 °C)red thermometer
Wind Chill37.1 °F (2.84 °C)
Reading TimeMinimum to Maximum Temperature
6-hr ending 5/22@23:5342.1 °F to 59 °F (5.6 °C to 15 °C)
6-hr ending 5/22@17:5357.9 °F to 66 °F (14.4 °C to 18.9 °C)
6-hr ending 5/22@11:5327 °F to 61 °F (-2.8 °C to 16.1 °C)
6-hr ending 5/22@05:5326.1 °F to 37 °F (-3.3 °C to 2.8 °C)
24-hr ending 5/22@00:5328.9 °F to 59 °F (-1.7 °C to 15 °C)
Wind8.06 MPH (7 KT) green arrow pointing 180 degrees
Wind FromSouth (170 Degrees)
Rolling 24-hr Peak Wind38 MPH (33 KT) on 5/22@14:39
Rolling 24-hr Peak Wind FromNorth/Northwest (330 Degrees)
Twilight Begins05:15Sunshine Yesterday
Sunrise05:49N/A
Sunset20:46
Twilight Ends21:20
METARKBPI 230553Z AUTO 17007KT 10SM BKN100 06/02 A3034 RMK AO2 SLP213 T00560017 10150 20056 50013
Tags: